sensor_id;sensor_type;location;lat;lon;timestamp;P1;durP1;ratioP1;P2;durP2;ratioP2
19778;SDS011;10049;59.306;18.090;2022-10-18T00:01:09;0.98;;;0.43;;
19778;SDS011;10049;59.306;18.090;2022-10-18T00:03:41;1.48;;;0.50;;
19778;SDS011;10049;59.306;18.090;2022-10-18T00:06:09;1.52;;;0.52;;
19778;SDS011;10049;59.306;18.090;2022-10-18T00:08:39;0.70;;;0.50;;
19778;SDS011;10049;59.306;18.090;2022-10-18T00:11:06;0.55;;;0.45;;
19778;SDS011;10049;59.306;18.090;2022-10-18T00:13:34;0.40;;;0.40;;
19778;SDS011;10049;59.306;18.090;2022-10-18T00:16:02;1.00;;;0.63;;
19778;SDS011;10049;59.306;18.090;2022-10-18T00:18:30;0.95;;;0.50;;
19778;SDS011;10049;59.306;18.090;2022-10-18T00:21:00;1.45;;;0.65;;
19778;SDS011;10049;59.306;18.090;2022-10-18T00:23:28;0.88;;;0.60;;
19778;SDS011;10049;59.306;18.090;2022-10-18T00:26:00;2.92;;;0.60;;
19778;SDS011;10049;59.306;18.090;2022-10-18T00:28:28;1.42;;;0.60;;
19778;SDS011;10049;59.306;18.090;2022-10-18T00:30:56;3.35;;;0.60;;
19778;SDS011;10049;59.306;18.090;2022-10-18T00:33:24;2.38;;;0.50;;
19778;SDS011;10049;59.306;18.090;2022-10-18T00:35:51;0.50;;;0.40;;
19778;SDS011;10049;59.306;18.090;2022-10-18T00:38:20;1.20;;;0.30;;
19778;SDS011;10049;59.306;18.090;2022-10-18T00:40:47;3.58;;;0.60;;
19778;SDS011;10049;59.306;18.090;2022-10-18T00:43:14;1.45;;;0.50;;
19778;SDS011;10049;59.306;18.090;2022-10-18T00:45:42;1.30;;;0.50;;
19778;SDS011;10049;59.306;18.090;2022-10-18T00:48:10;0.90;;;0.30;;
19778;SDS011;10049;59.306;18.090;2022-10-18T00:50:38;1.20;;;0.52;;
19778;SDS011;10049;59.306;18.090;2022-10-18T00:53:07;3.22;;;0.60;;
19778;SDS011;10049;59.306;18.090;2022-10-18T00:55:40;1.27;;;0.43;;
19778;SDS011;10049;59.306;18.090;2022-10-18T00:58:07;1.00;;;0.40;;
19778;SDS011;10049;59.306;18.090;2022-10-18T01:00:36;1.33;;;0.43;;
19778;SDS011;10049;59.306;18.090;2022-10-18T01:03:05;3.58;;;1.23;;
19778;SDS011;10049;59.306;18.090;2022-10-18T01:05:33;2.40;;;0.40;;
19778;SDS011;10049;59.306;18.090;2022-10-18T01:08:15;1.25;;;0.60;;
19778;SDS011;10049;59.306;18.090;2022-10-18T01:10:48;0.80;;;0.30;;
19778;SDS011;10049;59.306;18.090;2022-10-18T01:13:22;1.25;;;0.70;;
19778;SDS011;10049;59.306;18.090;2022-10-18T01:15:54;0.90;;;0.40;;
19778;SDS011;10049;59.306;18.090;2022-10-18T01:18:25;1.95;;;0.68;;
19778;SDS011;10049;59.306;18.090;2022-10-18T01:21:02;2.28;;;0.50;;
19778;SDS011;10049;59.306;18.090;2022-10-18T01:23:37;0.55;;;0.32;;
19778;SDS011;10049;59.306;18.090;2022-10-18T01:26:13;2.75;;;0.50;;
19778;SDS011;10049;59.306;18.090;2022-10-18T01:28:47;2.53;;;0.50;;
19778;SDS011;10049;59.306;18.090;2022-10-18T01:31:29;1.40;;;0.57;;
19778;SDS011;10049;59.306;18.090;2022-10-18T01:34:00;2.83;;;0.70;;
19778;SDS011;10049;59.306;18.090;2022-10-18T01:36:30;0.65;;;0.50;;
19778;SDS011;10049;59.306;18.090;2022-10-18T01:38:59;4.90;;;0.73;;
19778;SDS011;10049;59.306;18.090;2022-10-18T01:41:30;2.00;;;0.63;;
19778;SDS011;10049;59.306;18.090;2022-10-18T01:44:07;0.75;;;0.50;;
19778;SDS011;10049;59.306;18.090;2022-10-18T01:46:38;1.27;;;0.60;;
19778;SDS011;10049;59.306;18.090;2022-10-18T01:49:07;1.02;;;0.43;;
19778;SDS011;10049;59.306;18.090;2022-10-18T01:51:35;1.90;;;0.60;;
19778;SDS011;10049;59.306;18.090;2022-10-18T01:54:03;2.00;;;0.60;;
19778;SDS011;10049;59.306;18.090;2022-10-18T01:56:33;0.45;;;0.40;;
19778;SDS011;10049;59.306;18.090;2022-10-18T01:59:21;2.95;;;0.60;;
19778;SDS011;10049;59.306;18.090;2022-10-18T02:01:56;1.58;;;0.50;;
19778;SDS011;10049;59.306;18.090;2022-10-18T02:04:30;1.15;;;0.60;;
19778;SDS011;10049;59.306;18.090;2022-10-18T02:07:02;1.92;;;0.70;;
19778;SDS011;10049;59.306;18.090;2022-10-18T02:09:33;0.50;;;0.50;;
19778;SDS011;10049;59.306;18.090;2022-10-18T02:12:03;1.65;;;0.60;;
19778;SDS011;10049;59.306;18.090;2022-10-18T02:14:33;2.63;;;0.70;;
19778;SDS011;10049;59.306;18.090;2022-10-18T02:17:04;1.05;;;0.60;;
19778;SDS011;10049;59.306;18.090;2022-10-18T02:19:33;1.42;;;0.57;;
19778;SDS011;10049;59.306;18.090;2022-10-18T02:22:02;0.47;;;0.40;;
19778;SDS011;10049;59.306;18.090;2022-10-18T02:24:32;0.40;;;0.40;;
19778;SDS011;10049;59.306;18.090;2022-10-18T02:27:01;1.75;;;0.60;;
19778;SDS011;10049;59.306;18.090;2022-10-18T02:29:31;0.70;;;0.45;;
19778;SDS011;10049;59.306;18.090;2022-10-18T02:32:02;3.15;;;0.40;;
19778;SDS011;10049;59.306;18.090;2022-10-18T02:34:33;0.85;;;0.30;;
19778;SDS011;10049;59.306;18.090;2022-10-18T02:37:01;2.25;;;0.40;;
19778;SDS011;10049;59.306;18.090;2022-10-18T02:39:30;1.15;;;0.35;;
19778;SDS011;10049;59.306;18.090;2022-10-18T02:41:58;1.80;;;0.45;;
19778;SDS011;10049;59.306;18.090;2022-10-18T02:44:25;2.85;;;0.60;;
19778;SDS011;10049;59.306;18.090;2022-10-18T02:46:53;1.80;;;0.60;;
19778;SDS011;10049;59.306;18.090;2022-10-18T02:49:20;1.10;;;0.40;;
19778;SDS011;10049;59.306;18.090;2022-10-18T02:51:49;0.93;;;0.60;;
19778;SDS011;10049;59.306;18.090;2022-10-18T02:54:16;2.15;;;0.47;;
19778;SDS011;10049;59.306;18.090;2022-10-18T02:56:44;2.25;;;0.57;;
19778;SDS011;10049;59.306;18.090;2022-10-18T02:59:11;1.13;;;0.57;;
19778;SDS011;10049;59.306;18.090;2022-10-18T03:01:39;1.95;;;0.82;;
19778;SDS011;10049;59.306;18.090;2022-10-18T03:04:06;1.70;;;0.80;;
19778;SDS011;10049;59.306;18.090;2022-10-18T03:06:33;3.58;;;0.57;;
19778;SDS011;10049;59.306;18.090;2022-10-18T03:09:03;0.82;;;0.40;;
19778;SDS011;10049;59.306;18.090;2022-10-18T03:11:31;0.77;;;0.38;;
19778;SDS011;10049;59.306;18.090;2022-10-18T03:13:58;1.73;;;0.65;;
19778;SDS011;10049;59.306;18.090;2022-10-18T03:16:26;0.75;;;0.50;;
19778;SDS011;10049;59.306;18.090;2022-10-18T03:18:53;1.42;;;0.55;;
19778;SDS011;10049;59.306;18.090;2022-10-18T03:21:20;2.08;;;0.52;;
19778;SDS011;10049;59.306;18.090;2022-10-18T03:23:48;3.15;;;0.80;;
19778;SDS011;10049;59.306;18.090;2022-10-18T03:26:16;3.53;;;0.70;;
19778;SDS011;10049;59.306;18.090;2022-10-18T03:28:45;1.70;;;0.70;;
19778;SDS011;10049;59.306;18.090;2022-10-18T03:31:12;0.77;;;0.60;;
19778;SDS011;10049;59.306;18.090;2022-10-18T03:33:40;2.67;;;0.65;;
19778;SDS011;10049;59.306;18.090;2022-10-18T03:36:07;1.73;;;0.50;;
19778;SDS011;10049;59.306;18.090;2022-10-18T03:38:35;1.27;;;0.50;;
19778;SDS011;10049;59.306;18.090;2022-10-18T03:41:02;3.30;;;0.60;;
19778;SDS011;10049;59.306;18.090;2022-10-18T03:43:32;2.20;;;0.50;;
19778;SDS011;10049;59.306;18.090;2022-10-18T03:46:00;0.70;;;0.40;;
19778;SDS011;10049;59.306;18.090;2022-10-18T03:48:30;1.05;;;0.35;;
19778;SDS011;10049;59.306;18.090;2022-10-18T03:50:58;2.05;;;0.55;;
19778;SDS011;10049;59.306;18.090;2022-10-18T03:53:28;2.38;;;0.50;;
19778;SDS011;10049;59.306;18.090;2022-10-18T03:55:55;3.05;;;0.70;;
19778;SDS011;10049;59.306;18.090;2022-10-18T03:58:23;2.28;;;0.60;;
19778;SDS011;10049;59.306;18.090;2022-10-18T04:00:52;0.88;;;0.68;;
19778;SDS011;10049;59.306;18.090;2022-10-18T04:03:20;2.35;;;0.82;;
19778;SDS011;10049;59.306;18.090;2022-10-18T04:05:47;1.05;;;0.70;;
19778;SDS011;10049;59.306;18.090;2022-10-18T04:08:16;1.63;;;0.73;;
19778;SDS011;10049;59.306;18.090;2022-10-18T04:10:44;1.67;;;1.05;;
19778;SDS011;10049;59.306;18.090;2022-10-18T04:13:12;1.35;;;0.80;;
19778;SDS011;10049;59.306;18.090;2022-10-18T04:15:39;1.35;;;0.90;;
19778;SDS011;10049;59.306;18.090;2022-10-18T04:18:09;1.80;;;0.93;;
19778;SDS011;10049;59.306;18.090;2022-10-18T04:20:36;1.15;;;0.80;;
19778;SDS011;10049;59.306;18.090;2022-10-18T04:23:04;2.83;;;0.90;;
19778;SDS011;10049;59.306;18.090;2022-10-18T04:25:31;3.85;;;0.80;;
19778;SDS011;10049;59.306;18.090;2022-10-18T04:27:59;3.03;;;0.93;;
19778;SDS011;10049;59.306;18.090;2022-10-18T04:30:30;3.47;;;0.90;;
19778;SDS011;10049;59.306;18.090;2022-10-18T04:32:57;2.33;;;1.10;;
19778;SDS011;10049;59.306;18.090;2022-10-18T04:35:26;3.25;;;1.10;;
19778;SDS011;10049;59.306;18.090;2022-10-18T04:37:54;1.95;;;1.00;;
19778;SDS011;10049;59.306;18.090;2022-10-18T04:40:21;2.83;;;1.10;;
19778;SDS011;10049;59.306;18.090;2022-10-18T04:42:49;4.95;;;1.20;;
19778;SDS011;10049;59.306;18.090;2022-10-18T04:45:16;2.78;;;1.00;;
19778;SDS011;10049;59.306;18.090;2022-10-18T04:47:44;1.92;;;0.80;;
19778;SDS011;10049;59.306;18.090;2022-10-18T04:50:11;2.15;;;0.90;;
19778;SDS011;10049;59.306;18.090;2022-10-18T04:52:40;3.00;;;1.15;;
19778;SDS011;10049;59.306;18.090;2022-10-18T04:55:08;0.90;;;0.73;;
19778;SDS011;10049;59.306;18.090;2022-10-18T04:57:36;1.38;;;0.90;;
19778;SDS011;10049;59.306;18.090;2022-10-18T05:00:04;1.00;;;0.90;;
19778;SDS011;10049;59.306;18.090;2022-10-18T05:02:32;1.10;;;0.70;;
19778;SDS011;10049;59.306;18.090;2022-10-18T05:04:59;1.42;;;0.93;;
19778;SDS011;10049;59.306;18.090;2022-10-18T05:07:27;1.92;;;0.93;;
19778;SDS011;10049;59.306;18.090;2022-10-18T05:09:59;1.13;;;0.77;;
19778;SDS011;10049;59.306;18.090;2022-10-18T05:12:26;1.50;;;1.08;;
19778;SDS011;10049;59.306;18.090;2022-10-18T05:14:56;2.67;;;1.23;;
19778;SDS011;10049;59.306;18.090;2022-10-18T05:17:24;1.75;;;1.23;;
19778;SDS011;10049;59.306;18.090;2022-10-18T05:19:51;1.70;;;1.23;;
19778;SDS011;10049;59.306;18.090;2022-10-18T05:22:19;2.40;;;1.10;;
19778;SDS011;10049;59.306;18.090;2022-10-18T05:24:52;0.73;;;0.70;;
19778;SDS011;10049;59.306;18.090;2022-10-18T05:27:21;0.70;;;0.70;;
19778;SDS011;10049;59.306;18.090;2022-10-18T05:29:48;1.50;;;0.80;;
19778;SDS011;10049;59.306;18.090;2022-10-18T05:32:17;0.70;;;0.70;;
19778;SDS011;10049;59.306;18.090;2022-10-18T05:34:45;1.38;;;0.82;;
19778;SDS011;10049;59.306;18.090;2022-10-18T05:37:12;1.33;;;0.80;;
19778;SDS011;10049;59.306;18.090;2022-10-18T05:39:40;0.93;;;0.85;;
19778;SDS011;10049;59.306;18.090;2022-10-18T05:42:09;1.25;;;0.68;;
19778;SDS011;10049;59.306;18.090;2022-10-18T05:44:39;0.90;;;0.60;;
19778;SDS011;10049;59.306;18.090;2022-10-18T05:47:06;2.20;;;0.57;;
19778;SDS011;10049;59.306;18.090;2022-10-18T05:49:34;0.93;;;0.60;;
19778;SDS011;10049;59.306;18.090;2022-10-18T05:52:02;2.15;;;0.80;;
19778;SDS011;10049;59.306;18.090;2022-10-18T05:54:29;1.73;;;0.90;;
19778;SDS011;10049;59.306;18.090;2022-10-18T05:56:56;2.67;;;1.05;;
19778;SDS011;10049;59.306;18.090;2022-10-18T05:59:24;2.78;;;0.90;;
19778;SDS011;10049;59.306;18.090;2022-10-18T06:01:55;1.75;;;0.93;;
19778;SDS011;10049;59.306;18.090;2022-10-18T06:04:23;1.13;;;0.80;;
19778;SDS011;10049;59.306;18.090;2022-10-18T06:06:54;1.33;;;0.90;;
19778;SDS011;10049;59.306;18.090;2022-10-18T06:09:37;2.63;;;0.90;;
19778;SDS011;10049;59.306;18.090;2022-10-18T06:12:09;1.23;;;0.70;;
19778;SDS011;10049;59.306;18.090;2022-10-18T06:14:38;2.65;;;0.80;;
19778;SDS011;10049;59.306;18.090;2022-10-18T06:17:07;0.95;;;0.80;;
19778;SDS011;10049;59.306;18.090;2022-10-18T06:19:35;1.27;;;0.65;;
19778;SDS011;10049;59.306;18.090;2022-10-18T06:22:07;0.82;;;0.60;;
19778;SDS011;10049;59.306;18.090;2022-10-18T06:24:35;2.30;;;0.70;;
19778;SDS011;10049;59.306;18.090;2022-10-18T06:27:04;2.95;;;0.70;;
19778;SDS011;10049;59.306;18.090;2022-10-18T06:29:35;1.30;;;0.70;;
19778;SDS011;10049;59.306;18.090;2022-10-18T06:32:03;1.25;;;0.77;;
19778;SDS011;10049;59.306;18.090;2022-10-18T06:34:36;0.85;;;0.50;;
19778;SDS011;10049;59.306;18.090;2022-10-18T06:37:04;0.60;;;0.52;;
19778;SDS011;10049;59.306;18.090;2022-10-18T06:39:32;2.75;;;0.50;;
19778;SDS011;10049;59.306;18.090;2022-10-18T06:41:59;0.90;;;0.68;;
19778;SDS011;10049;59.306;18.090;2022-10-18T06:44:27;0.90;;;0.75;;
19778;SDS011;10049;59.306;18.090;2022-10-18T06:46:55;0.40;;;0.30;;
19778;SDS011;10049;59.306;18.090;2022-10-18T06:49:25;0.40;;;0.40;;
19778;SDS011;10049;59.306;18.090;2022-10-18T06:51:54;1.20;;;0.30;;
19778;SDS011;10049;59.306;18.090;2022-10-18T06:54:23;0.47;;;0.47;;
19778;SDS011;10049;59.306;18.090;2022-10-18T06:56:50;0.75;;;0.30;;
19778;SDS011;10049;59.306;18.090;2022-10-18T06:59:22;1.15;;;0.40;;
19778;SDS011;10049;59.306;18.090;2022-10-18T07:01:49;0.82;;;0.28;;
19778;SDS011;10049;59.306;18.090;2022-10-18T07:04:19;0.30;;;0.30;;
19778;SDS011;10049;59.306;18.090;2022-10-18T07:06:47;0.30;;;0.30;;
19778;SDS011;10049;59.306;18.090;2022-10-18T07:09:17;0.35;;;0.35;;
19778;SDS011;10049;59.306;18.090;2022-10-18T07:11:44;1.75;;;0.45;;
19778;SDS011;10049;59.306;18.090;2022-10-18T07:14:13;1.77;;;1.50;;
19778;SDS011;10049;59.306;18.090;2022-10-18T07:16:40;2.20;;;1.52;;
19778;SDS011;10049;59.306;18.090;2022-10-18T07:19:08;1.05;;;0.40;;
19778;SDS011;10049;59.306;18.090;2022-10-18T07:21:36;1.23;;;0.40;;
19778;SDS011;10049;59.306;18.090;2022-10-18T07:24:05;0.95;;;0.40;;
19778;SDS011;10049;59.306;18.090;2022-10-18T07:26:34;0.45;;;0.45;;
19778;SDS011;10049;59.306;18.090;2022-10-18T07:29:03;0.40;;;0.40;;
19778;SDS011;10049;59.306;18.090;2022-10-18T07:31:31;0.85;;;0.30;;
19778;SDS011;10049;59.306;18.090;2022-10-18T07:34:00;0.30;;;0.30;;
19778;SDS011;10049;59.306;18.090;2022-10-18T07:36:27;0.25;;;0.25;;
19778;SDS011;10049;59.306;18.090;2022-10-18T07:38:55;0.47;;;0.30;;
19778;SDS011;10049;59.306;18.090;2022-10-18T07:41:23;2.35;;;0.30;;
19778;SDS011;10049;59.306;18.090;2022-10-18T07:43:53;0.20;;;0.20;;
19778;SDS011;10049;59.306;18.090;2022-10-18T07:46:20;3.55;;;0.43;;
19778;SDS011;10049;59.306;18.090;2022-10-18T07:48:48;0.30;;;0.30;;
19778;SDS011;10049;59.306;18.090;2022-10-18T07:51:16;0.43;;;0.40;;
19778;SDS011;10049;59.306;18.090;2022-10-18T07:53:44;0.30;;;0.30;;
19778;SDS011;10049;59.306;18.090;2022-10-18T07:56:13;2.25;;;0.28;;
19778;SDS011;10049;59.306;18.090;2022-10-18T07:58:41;0.20;;;0.20;;
19778;SDS011;10049;59.306;18.090;2022-10-18T08:01:11;0.20;;;0.20;;
19778;SDS011;10049;59.306;18.090;2022-10-18T08:03:40;0.15;;;0.15;;
19778;SDS011;10049;59.306;18.090;2022-10-18T08:06:10;0.35;;;0.20;;
19778;SDS011;10049;59.306;18.090;2022-10-18T08:08:38;0.20;;;0.20;;
19778;SDS011;10049;59.306;18.090;2022-10-18T08:11:07;0.85;;;0.20;;
19778;SDS011;10049;59.306;18.090;2022-10-18T08:13:35;1.45;;;0.20;;
19778;SDS011;10049;59.306;18.090;2022-10-18T08:16:08;0.10;;;0.10;;
19778;SDS011;10049;59.306;18.090;2022-10-18T08:18:37;0.38;;;0.20;;
19778;SDS011;10049;59.306;18.090;2022-10-18T08:21:06;0.52;;;0.20;;
19778;SDS011;10049;59.306;18.090;2022-10-18T08:23:34;0.57;;;0.30;;
19778;SDS011;10049;59.306;18.090;2022-10-18T08:26:02;0.30;;;0.30;;
19778;SDS011;10049;59.306;18.090;2022-10-18T08:28:32;0.20;;;0.20;;
19778;SDS011;10049;59.306;18.090;2022-10-18T08:31:01;0.28;;;0.20;;
19778;SDS011;10049;59.306;18.090;2022-10-18T08:33:29;0.35;;;0.35;;
19778;SDS011;10049;59.306;18.090;2022-10-18T08:35:59;0.20;;;0.20;;
19778;SDS011;10049;59.306;18.090;2022-10-18T08:38:29;0.20;;;0.20;;
19778;SDS011;10049;59.306;18.090;2022-10-18T08:44:06;3.00;;;0.30;;
19778;SDS011;10049;59.306;18.090;2022-10-18T08:46:43;0.55;;;0.30;;
19778;SDS011;10049;59.306;18.090;2022-10-18T08:49:14;0.20;;;0.20;;
19778;SDS011;10049;59.306;18.090;2022-10-18T08:51:47;0.30;;;0.30;;
19778;SDS011;10049;59.306;18.090;2022-10-18T08:54:17;0.52;;;0.30;;
19778;SDS011;10049;59.306;18.090;2022-10-18T08:56:51;0.40;;;0.40;;
19778;SDS011;10049;59.306;18.090;2022-10-18T08:59:22;0.30;;;0.30;;
19778;SDS011;10049;59.306;18.090;2022-10-18T09:01:53;2.00;;;0.40;;
19778;SDS011;10049;59.306;18.090;2022-10-18T09:04:35;1.65;;;0.40;;
19778;SDS011;10049;59.306;18.090;2022-10-18T09:07:13;0.35;;;0.35;;
19778;SDS011;10049;59.306;18.090;2022-10-18T09:09:46;0.47;;;0.47;;
19778;SDS011;10049;59.306;18.090;2022-10-18T09:12:28;0.52;;;0.52;;
19778;SDS011;10049;59.306;18.090;2022-10-18T09:15:03;0.40;;;0.40;;
19778;SDS011;10049;59.306;18.090;2022-10-18T09:17:37;2.50;;;0.35;;
19778;SDS011;10049;59.306;18.090;2022-10-18T09:20:10;0.40;;;0.38;;
19778;SDS011;10049;59.306;18.090;2022-10-18T09:22:52;0.40;;;0.40;;
19778;SDS011;10049;59.306;18.090;2022-10-18T09:25:20;0.50;;;0.50;;
19778;SDS011;10049;59.306;18.090;2022-10-18T09:27:52;0.60;;;0.40;;
19778;SDS011;10049;59.306;18.090;2022-10-18T09:30:35;0.47;;;0.47;;
19778;SDS011;10049;59.306;18.090;2022-10-18T09:33:15;1.35;;;0.55;;
19778;SDS011;10049;59.306;18.090;2022-10-18T09:35:47;0.55;;;0.50;;
19778;SDS011;10049;59.306;18.090;2022-10-18T09:38:22;0.50;;;0.40;;
19778;SDS011;10049;59.306;18.090;2022-10-18T09:40:53;1.30;;;0.40;;
19778;SDS011;10049;59.306;18.090;2022-10-18T09:43:22;0.30;;;0.30;;
19778;SDS011;10049;59.306;18.090;2022-10-18T09:45:53;0.50;;;0.40;;
19778;SDS011;10049;59.306;18.090;2022-10-18T09:48:32;0.52;;;0.40;;
19778;SDS011;10049;59.306;18.090;2022-10-18T09:51:06;0.82;;;0.40;;
19778;SDS011;10049;59.306;18.090;2022-10-18T09:56:34;0.30;;;0.30;;
19778;SDS011;10049;59.306;18.090;2022-10-18T09:59:06;2.55;;;0.52;;
19778;SDS011;10049;59.306;18.090;2022-10-18T10:01:46;0.70;;;0.40;;
19778;SDS011;10049;59.306;18.090;2022-10-18T10:04:16;0.43;;;0.43;;
19778;SDS011;10049;59.306;18.090;2022-10-18T10:06:48;0.80;;;0.45;;
19778;SDS011;10049;59.306;18.090;2022-10-18T10:09:20;1.35;;;0.43;;
19778;SDS011;10049;59.306;18.090;2022-10-18T10:12:03;0.52;;;0.40;;
19778;SDS011;10049;59.306;18.090;2022-10-18T10:14:45;0.85;;;0.45;;
19778;SDS011;10049;59.306;18.090;2022-10-18T10:17:26;0.30;;;0.30;;
19778;SDS011;10049;59.306;18.090;2022-10-18T10:19:58;1.52;;;0.65;;
19778;SDS011;10049;59.306;18.090;2022-10-18T10:22:31;0.65;;;0.57;;
19778;SDS011;10049;59.306;18.090;2022-10-18T10:25:18;1.60;;;0.60;;
19778;SDS011;10049;59.306;18.090;2022-10-18T10:28:06;0.50;;;0.50;;
19778;SDS011;10049;59.306;18.090;2022-10-18T10:30:41;0.45;;;0.40;;
19778;SDS011;10049;59.306;18.090;2022-10-18T10:35:57;0.55;;;0.47;;
19778;SDS011;10049;59.306;18.090;2022-10-18T10:38:27;0.65;;;0.40;;
19778;SDS011;10049;59.306;18.090;2022-10-18T10:41:13;1.98;;;0.60;;
19778;SDS011;10049;59.306;18.090;2022-10-18T10:43:48;0.43;;;0.43;;
19778;SDS011;10049;59.306;18.090;2022-10-18T10:46:17;0.40;;;0.40;;
19778;SDS011;10049;59.306;18.090;2022-10-18T10:48:47;0.35;;;0.35;;
19778;SDS011;10049;59.306;18.090;2022-10-18T10:51:16;1.48;;;0.50;;
19778;SDS011;10049;59.306;18.090;2022-10-18T10:53:47;0.43;;;0.43;;
19778;SDS011;10049;59.306;18.090;2022-10-18T10:56:30;0.30;;;0.30;;
19778;SDS011;10049;59.306;18.090;2022-10-18T10:59:06;1.85;;;0.50;;
19778;SDS011;10049;59.306;18.090;2022-10-18T11:01:34;0.40;;;0.32;;
19778;SDS011;10049;59.306;18.090;2022-10-18T11:07:03;0.77;;;0.57;;
19778;SDS011;10049;59.306;18.090;2022-10-18T11:09:43;0.70;;;0.50;;
19778;SDS011;10049;59.306;18.090;2022-10-18T11:12:16;0.50;;;0.40;;
19778;SDS011;10049;59.306;18.090;2022-10-18T11:14:48;0.40;;;0.30;;
19778;SDS011;10049;59.306;18.090;2022-10-18T11:17:20;1.10;;;0.50;;
19778;SDS011;10049;59.306;18.090;2022-10-18T11:19:56;0.90;;;0.50;;
19778;SDS011;10049;59.306;18.090;2022-10-18T11:22:26;0.57;;;0.40;;
19778;SDS011;10049;59.306;18.090;2022-10-18T11:24:56;0.40;;;0.40;;
19778;SDS011;10049;59.306;18.090;2022-10-18T11:27:27;0.43;;;0.43;;
19778;SDS011;10049;59.306;18.090;2022-10-18T11:30:01;1.05;;;0.40;;
19778;SDS011;10049;59.306;18.090;2022-10-18T11:32:32;0.63;;;0.32;;
19778;SDS011;10049;59.306;18.090;2022-10-18T11:35:19;0.65;;;0.40;;
19778;SDS011;10049;59.306;18.090;2022-10-18T11:37:52;0.30;;;0.30;;
19778;SDS011;10049;59.306;18.090;2022-10-18T11:40:30;0.40;;;0.40;;
19778;SDS011;10049;59.306;18.090;2022-10-18T11:43:15;0.52;;;0.40;;
19778;SDS011;10049;59.306;18.090;2022-10-18T11:45:50;0.40;;;0.40;;
19778;SDS011;10049;59.306;18.090;2022-10-18T11:48:35;0.50;;;0.47;;
19778;SDS011;10049;59.306;18.090;2022-10-18T11:51:07;0.40;;;0.40;;
19778;SDS011;10049;59.306;18.090;2022-10-18T11:53:41;0.28;;;0.28;;
19778;SDS011;10049;59.306;18.090;2022-10-18T11:56:12;0.35;;;0.30;;
19778;SDS011;10049;59.306;18.090;2022-10-18T11:58:49;0.30;;;0.30;;
19778;SDS011;10049;59.306;18.090;2022-10-18T12:01:23;0.30;;;0.30;;
19778;SDS011;10049;59.306;18.090;2022-10-18T12:03:55;0.30;;;0.30;;
19778;SDS011;10049;59.306;18.090;2022-10-18T12:06:27;0.30;;;0.30;;
19778;SDS011;10049;59.306;18.090;2022-10-18T12:08:58;2.05;;;0.40;;
19778;SDS011;10049;59.306;18.090;2022-10-18T12:11:28;1.98;;;0.30;;
19778;SDS011;10049;59.306;18.090;2022-10-18T12:13:57;0.20;;;0.20;;
19778;SDS011;10049;59.306;18.090;2022-10-18T12:16:32;0.30;;;0.30;;
19778;SDS011;10049;59.306;18.090;2022-10-18T12:19:03;2.22;;;0.30;;
19778;SDS011;10049;59.306;18.090;2022-10-18T12:21:31;0.30;;;0.30;;
19778;SDS011;10049;59.306;18.090;2022-10-18T12:24:01;0.20;;;0.20;;
19778;SDS011;10049;59.306;18.090;2022-10-18T12:26:31;1.17;;;0.30;;
19778;SDS011;10049;59.306;18.090;2022-10-18T12:29:09;0.30;;;0.30;;
19778;SDS011;10049;59.306;18.090;2022-10-18T12:31:41;0.65;;;0.30;;
19778;SDS011;10049;59.306;18.090;2022-10-18T12:34:16;0.30;;;0.30;;
19778;SDS011;10049;59.306;18.090;2022-10-18T12:36:58;0.73;;;0.60;;
19778;SDS011;10049;59.306;18.090;2022-10-18T12:39:43;0.20;;;0.20;;
19778;SDS011;10049;59.306;18.090;2022-10-18T12:42:16;0.55;;;0.25;;
19778;SDS011;10049;59.306;18.090;2022-10-18T12:44:46;0.30;;;0.30;;
19778;SDS011;10049;59.306;18.090;2022-10-18T12:47:21;1.00;;;0.40;;
19778;SDS011;10049;59.306;18.090;2022-10-18T12:49:54;0.30;;;0.30;;
19778;SDS011;10049;59.306;18.090;2022-10-18T12:52:23;0.73;;;0.30;;
19778;SDS011;10049;59.306;18.090;2022-10-18T13:06:01;1.85;;;0.30;;
19778;SDS011;10049;59.306;18.090;2022-10-18T13:08:37;0.20;;;0.20;;
19778;SDS011;10049;59.306;18.090;2022-10-18T13:14:07;0.70;;;0.30;;
19778;SDS011;10049;59.306;18.090;2022-10-18T13:16:40;1.08;;;0.30;;
19778;SDS011;10049;59.306;18.090;2022-10-18T13:19:13;0.22;;;0.22;;
19778;SDS011;10049;59.306;18.090;2022-10-18T13:21:46;0.30;;;0.30;;
19778;SDS011;10049;59.306;18.090;2022-10-18T13:24:29;3.10;;;0.30;;
19778;SDS011;10049;59.306;18.090;2022-10-18T13:27:06;1.85;;;0.30;;
19778;SDS011;10049;59.306;18.090;2022-10-18T13:29:56;0.25;;;0.25;;
19778;SDS011;10049;59.306;18.090;2022-10-18T13:32:26;0.30;;;0.30;;
19778;SDS011;10049;59.306;18.090;2022-10-18T13:34:57;0.30;;;0.30;;
19778;SDS011;10049;59.306;18.090;2022-10-18T13:37:33;0.20;;;0.20;;
19778;SDS011;10049;59.306;18.090;2022-10-18T13:40:20;0.57;;;0.30;;
19778;SDS011;10049;59.306;18.090;2022-10-18T13:42:54;0.38;;;0.30;;
19778;SDS011;10049;59.306;18.090;2022-10-18T13:45:41;0.30;;;0.30;;
19778;SDS011;10049;59.306;18.090;2022-10-18T13:51:01;0.50;;;0.40;;
19778;SDS011;10049;59.306;18.090;2022-10-18T13:53:40;0.30;;;0.30;;
19778;SDS011;10049;59.306;18.090;2022-10-18T13:59:16;0.40;;;0.40;;
19778;SDS011;10049;59.306;18.090;2022-10-18T14:02:03;0.80;;;0.30;;
19778;SDS011;10049;59.306;18.090;2022-10-18T14:04:54;0.30;;;0.30;;
19778;SDS011;10049;59.306;18.090;2022-10-18T14:07:25;0.30;;;0.30;;
19778;SDS011;10049;59.306;18.090;2022-10-18T14:09:54;0.38;;;0.30;;
19778;SDS011;10049;59.306;18.090;2022-10-18T14:12:25;0.38;;;0.38;;
19778;SDS011;10049;59.306;18.090;2022-10-18T14:14:55;3.08;;;0.40;;
19778;SDS011;10049;59.306;18.090;2022-10-18T14:17:27;0.30;;;0.30;;
19778;SDS011;10049;59.306;18.090;2022-10-18T14:19:56;0.38;;;0.38;;
19778;SDS011;10049;59.306;18.090;2022-10-18T14:22:27;1.08;;;0.30;;
19778;SDS011;10049;59.306;18.090;2022-10-18T14:25:16;0.82;;;0.40;;
19778;SDS011;10049;59.306;18.090;2022-10-18T14:27:44;1.80;;;0.50;;
19778;SDS011;10049;59.306;18.090;2022-10-18T14:30:13;1.33;;;0.40;;
19778;SDS011;10049;59.306;18.090;2022-10-18T14:32:41;0.40;;;0.40;;
19778;SDS011;10049;59.306;18.090;2022-10-18T14:35:16;0.40;;;0.40;;
19778;SDS011;10049;59.306;18.090;2022-10-18T14:37:45;0.38;;;0.32;;
19778;SDS011;10049;59.306;18.090;2022-10-18T14:42:57;1.08;;;0.40;;
19778;SDS011;10049;59.306;18.090;2022-10-18T14:45:27;0.40;;;0.40;;
19778;SDS011;10049;59.306;18.090;2022-10-18T14:47:54;2.47;;;0.40;;
19778;SDS011;10049;59.306;18.090;2022-10-18T14:50:30;0.85;;;0.60;;
19778;SDS011;10049;59.306;18.090;2022-10-18T14:53:02;0.50;;;0.50;;
19778;SDS011;10049;59.306;18.090;2022-10-18T14:55:30;0.50;;;0.50;;
19778;SDS011;10049;59.306;18.090;2022-10-18T14:57:59;0.40;;;0.40;;
19778;SDS011;10049;59.306;18.090;2022-10-18T15:00:28;1.17;;;0.50;;
19778;SDS011;10049;59.306;18.090;2022-10-18T15:02:58;0.68;;;0.50;;
19778;SDS011;10049;59.306;18.090;2022-10-18T15:05:26;0.45;;;0.45;;
19778;SDS011;10049;59.306;18.090;2022-10-18T15:07:54;1.10;;;0.50;;
19778;SDS011;10049;59.306;18.090;2022-10-18T15:10:24;0.50;;;0.50;;
19778;SDS011;10049;59.306;18.090;2022-10-18T15:12:52;3.20;;;0.60;;
19778;SDS011;10049;59.306;18.090;2022-10-18T15:15:26;0.50;;;0.50;;
19778;SDS011;10049;59.306;18.090;2022-10-18T15:17:54;0.63;;;0.63;;
19778;SDS011;10049;59.306;18.090;2022-10-18T15:20:23;1.20;;;0.73;;
19778;SDS011;10049;59.306;18.090;2022-10-18T15:22:52;0.50;;;0.47;;
19778;SDS011;10049;59.306;18.090;2022-10-18T15:25:22;5.38;;;0.85;;
19778;SDS011;10049;59.306;18.090;2022-10-18T15:27:51;1.05;;;0.60;;
19778;SDS011;10049;59.306;18.090;2022-10-18T15:30:23;0.50;;;0.47;;